createdAt,value
2018-04-02T00:00:48.283Z,100797.03
2018-04-02T00:03:14.259Z,100801.30
2018-04-02T00:05:40.197Z,100799.98
2018-04-02T00:08:06.165Z,100798.17
2018-04-02T00:10:32.110Z,100794.02
2018-04-02T00:12:58.071Z,100789.31
2018-04-02T00:15:24.030Z,100790.14
2018-04-02T00:17:49.982Z,100781.95
2018-04-02T00:20:15.922Z,100783.55
2018-04-02T00:22:41.889Z,100786.31
2018-04-02T00:25:07.846Z,100787.22
2018-04-02T00:27:33.798Z,100782.23
2018-04-02T00:29:59.765Z,100783.22
2018-04-02T00:32:25.705Z,100781.34
2018-04-02T00:34:51.685Z,100781.62
2018-04-02T00:37:17.705Z,100777.75
2018-04-02T00:39:43.654Z,100777.05
2018-04-02T00:42:09.592Z,100771.70
2018-04-02T00:44:35.634Z,100767.82
2018-04-02T00:47:01.569Z,100763.66
2018-04-02T00:49:27.509Z,100767.75
2018-04-02T00:51:53.464Z,100763.87
2018-04-02T00:54:19.413Z,100763.88
2018-04-02T00:56:45.363Z,100761.85
2018-04-02T00:59:11.325Z,100766.59
2018-04-02T01:01:37.312Z,100759.71
2018-04-02T01:04:03.251Z,100755.88
2018-04-02T01:06:29.204Z,100746.16
2018-04-02T01:08:55.138Z,100743.33
2018-04-02T01:11:21.093Z,100742.35
2018-04-02T01:13:47.035Z,100741.05
2018-04-02T01:16:12.995Z,100740.96
2018-04-02T01:18:38.937Z,100741.67
2018-04-02T01:21:04.889Z,100742.01
2018-04-02T01:23:30.849Z,100734.73
2018-04-02T01:25:56.797Z,100728.00
2018-04-02T01:28:22.754Z,100728.59
2018-04-02T01:30:48.702Z,100721.49
2018-04-02T01:33:14.661Z,100721.29
2018-04-02T01:35:40.608Z,100720.59
2018-04-02T01:38:06.545Z,100721.78
2018-04-02T01:40:32.490Z,100721.63
2018-04-02T01:42:58.429Z,100714.42
2018-04-02T01:45:24.436Z,100715.20
2018-04-02T01:47:50.397Z,100714.22
2018-04-02T01:50:16.354Z,100715.25
2018-04-02T01:52:42.313Z,100716.85
2018-04-02T01:55:08.254Z,100714.09
2018-04-02T01:57:34.205Z,100716.77
2018-04-02T02:00:00.145Z,100711.80
2018-04-02T02:02:26.095Z,100705.41
2018-04-02T02:04:52.034Z,100704.99
2018-04-02T02:07:17.992Z,100699.94
2018-04-02T02:09:43.938Z,100695.64
2018-04-02T02:12:09.888Z,100696.32
2018-04-02T02:14:35.837Z,100688.89
2018-04-02T02:17:01.785Z,100686.26
2018-04-02T02:19:27.753Z,100681.48
2018-04-02T02:21:53.731Z,100678.35
2018-04-02T02:24:19.682Z,100679.19
2018-04-02T02:26:45.643Z,100679.63
2018-04-02T02:29:11.597Z,100672.88
2018-04-02T02:31:37.553Z,100673.03
2018-04-02T02:34:03.518Z,100674.68
2018-04-02T02:36:29.526Z,100673.72
2018-04-02T02:38:55.474Z,100672.27
2018-04-02T02:41:21.439Z,100670.20
2018-04-02T02:43:47.383Z,100669.42
2018-04-02T02:46:13.370Z,100661.52
2018-04-02T02:48:39.383Z,100663.53
2018-04-02T02:51:05.350Z,100667.13
2018-04-02T02:53:31.307Z,100666.87
2018-04-02T02:55:57.249Z,100659.50
2018-04-02T02:58:23.196Z,100657.37
2018-04-02T03:00:49.135Z,100657.45
2018-04-02T03:03:15.099Z,100654.24
2018-04-02T03:05:41.064Z,100654.45
2018-04-02T03:08:07.014Z,100659.30
2018-04-02T03:10:33.073Z,100652.10
2018-04-02T03:12:59.021Z,100647.81
2018-04-02T03:15:25.010Z,100646.56
2018-04-02T03:17:50.961Z,100641.77
2018-04-02T03:20:16.933Z,100641.89
2018-04-02T03:22:42.880Z,100640.76
2018-04-02T03:25:08.837Z,100646.50
2018-04-02T03:27:34.790Z,100640.03
2018-04-02T03:30:00.738Z,100638.10
2018-04-02T03:32:26.700Z,100634.27
2018-04-02T03:34:52.655Z,100631.07
2018-04-02T03:37:18.598Z,100627.67
2018-04-02T03:39:44.542Z,100626.23
2018-04-02T03:42:10.486Z,100622.56
2018-04-02T03:44:36.443Z,100625.59
2018-04-02T03:47:02.378Z,100618.36
2018-04-02T03:49:28.321Z,100614.33
2018-04-02T03:51:54.265Z,100612.70
2018-04-02T03:54:20.230Z,100615.06
2018-04-02T03:56:46.190Z,100610.86
2018-04-02T03:59:12.142Z,100615.17
2018-04-02T04:01:38.077Z,100615.64
2018-04-02T04:04:04.022Z,100611.55
2018-04-02T04:06:29.982Z,100606.98
2018-04-02T04:08:55.925Z,100606.63
2018-04-02T04:11:21.861Z,100605.45
2018-04-02T04:13:47.804Z,100600.09
2018-04-02T04:16:13.741Z,100601.62
2018-04-02T04:18:39.695Z,100603.66
2018-04-02T04:21:05.633Z,100598.41
2018-04-02T04:23:31.594Z,100595.25
2018-04-02T04:25:57.542Z,100594.59
2018-04-02T04:28:23.483Z,100592.87
2018-04-02T04:30:49.417Z,100588.77
2018-04-02T04:33:15.366Z,100588.77
2018-04-02T04:35:41.312Z,100587.67
2018-04-02T04:38:07.254Z,100592.02
2018-04-02T04:40:33.233Z,100589.77
2018-04-02T04:42:59.170Z,100589.90
2018-04-02T04:45:25.222Z,100584.02
2018-04-02T04:47:51.168Z,100586.08
2018-04-02T04:50:17.123Z,100588.88
2018-04-02T04:52:43.070Z,100581.93
2018-04-02T04:55:09.034Z,100584.54
2018-04-02T04:57:34.997Z,100577.13
2018-04-02T05:00:00.941Z,100574.20
2018-04-02T05:02:26.909Z,100571.93
2018-04-02T05:04:52.847Z,100570.78
2018-04-02T05:07:18.797Z,100567.09
2018-04-02T05:09:44.742Z,100567.39
2018-04-02T05:12:10.713Z,100564.76
2018-04-02T05:14:36.658Z,100559.93
2018-04-02T05:17:02.615Z,100562.78
2018-04-02T05:19:28.566Z,100561.47
2018-04-02T05:21:54.554Z,100557.40
2018-04-02T05:24:20.504Z,100560.86
2018-04-02T05:26:46.447Z,100559.98
2018-04-02T05:29:12.411Z,100560.80
2018-04-02T05:31:38.382Z,100563.97
2018-04-02T05:34:04.336Z,100561.48
2018-04-02T05:36:30.272Z,100558.98
2018-04-02T05:38:56.271Z,100560.89
2018-04-02T05:41:22.213Z,100557.84
2018-04-02T05:43:48.166Z,100554.67
2018-04-02T05:46:14.190Z,100548.22
2018-04-02T05:48:40.135Z,100550.70
2018-04-02T05:51:06.123Z,100546.38
2018-04-02T05:53:32.029Z,100546.96
2018-04-02T05:55:57.981Z,100555.31
2018-04-02T05:58:23.926Z,100544.63
2018-04-02T06:00:49.898Z,100538.47
2018-04-02T06:03:15.838Z,100537.56
2018-04-02T06:05:41.776Z,100541.69
2018-04-02T06:08:07.725Z,100536.66
2018-04-02T06:10:33.717Z,100533.84
2018-04-02T06:12:59.673Z,100529.65
2018-04-02T06:15:25.613Z,100529.34
2018-04-02T06:17:51.557Z,100524.78
2018-04-02T06:20:17.509Z,100524.53
2018-04-02T06:22:43.454Z,100520.74
2018-04-02T06:25:09.400Z,100519.89
2018-04-02T06:27:35.337Z,100525.16
2018-04-02T06:30:01.289Z,100521.70
2018-04-02T06:32:27.237Z,100524.29
2018-04-02T06:34:53.234Z,100527.15
2018-04-02T06:37:19.175Z,100525.28
2018-04-02T06:39:45.139Z,100530.71
2018-04-02T06:42:11.094Z,100525.88
2018-04-02T06:44:37.025Z,100523.57
2018-04-02T06:47:02.977Z,100522.20
2018-04-02T06:49:28.917Z,100517.56
2018-04-02T06:51:54.852Z,100517.53
2018-04-02T06:54:20.808Z,100506.66
2018-04-02T06:56:46.766Z,100503.83
2018-04-02T06:59:12.709Z,100502.94
2018-04-02T07:01:38.674Z,100502.50
2018-04-02T07:04:04.629Z,100494.20
2018-04-02T07:06:30.610Z,100500.66
2018-04-02T07:08:56.557Z,100495.22
2018-04-02T07:11:22.534Z,100500.61
2018-04-02T07:13:48.485Z,100493.48
2018-04-02T07:16:14.453Z,100494.09
2018-04-02T07:18:40.420Z,100495.55
2018-04-02T07:21:06.384Z,100488.05
2018-04-02T07:23:32.345Z,100482.97
2018-04-02T07:25:58.333Z,100483.46
2018-04-02T07:28:24.289Z,100480.55
2018-04-02T07:30:50.237Z,100482.91
2018-04-02T07:33:16.221Z,100478.78
2018-04-02T07:35:42.178Z,100478.38
2018-04-02T07:38:08.153Z,100474.69
2018-04-02T07:40:34.097Z,100464.69
2018-04-02T07:43:00.041Z,100459.69
2018-04-02T07:45:26.013Z,100459.86
2018-04-02T07:47:51.963Z,100456.86
2018-04-02T07:50:17.903Z,100459.50
2018-04-02T07:52:43.886Z,100451.26
2018-04-02T07:55:09.836Z,100455.98
2018-04-02T07:57:35.912Z,100456.04
2018-04-02T08:00:01.805Z,100450.18
2018-04-02T08:02:27.780Z,100456.59
2018-04-02T08:04:53.753Z,100453.45
2018-04-02T08:07:19.709Z,100454.52
2018-04-02T08:09:45.698Z,100453.91
2018-04-02T08:12:11.706Z,100456.22
2018-04-02T08:14:37.657Z,100455.25
2018-04-02T08:17:03.605Z,100452.67
2018-04-02T08:19:29.629Z,100451.76
2018-04-02T08:21:55.637Z,100448.95
2018-04-02T08:24:21.598Z,100446.95
2018-04-02T08:26:47.542Z,100447.23
2018-04-02T08:29:13.491Z,100446.85
2018-04-02T08:31:39.486Z,100443.17
2018-04-02T08:34:05.419Z,100443.22
2018-04-02T08:36:31.418Z,100434.75
2018-04-02T08:38:57.334Z,100434.26
2018-04-02T08:41:23.243Z,100423.30
2018-04-02T08:43:49.310Z,100416.52
2018-04-02T08:46:15.257Z,100415.28
2018-04-02T08:48:41.244Z,100415.70
2018-04-02T08:51:07.186Z,100419.39
2018-04-02T08:53:33.138Z,100417.80
2018-04-02T08:55:59.178Z,100411.56
2018-04-02T08:58:25.129Z,100409.70
2018-04-02T09:00:51.092Z,100407.56
2018-04-02T09:03:17.034Z,100407.70
2018-04-02T09:05:42.988Z,100408.42
2018-04-02T09:08:08.926Z,100407.80
2018-04-02T09:10:34.977Z,100407.02
2018-04-02T09:13:00.921Z,100405.10
2018-04-02T09:15:26.880Z,100402.15
2018-04-02T09:17:52.834Z,100390.65
2018-04-02T09:20:18.802Z,100389.42
2018-04-02T09:22:44.766Z,100387.05
2018-04-02T09:25:10.742Z,100380.87
2018-04-02T09:27:36.685Z,100386.83
2018-04-02T09:30:02.648Z,100380.73
2018-04-02T09:32:28.594Z,100378.59
2018-04-02T09:34:54.538Z,100372.91
2018-04-02T09:37:20.522Z,100370.63
2018-04-02T09:39:46.482Z,100365.50
2018-04-02T09:42:12.425Z,100350.09
2018-04-02T09:44:38.386Z,100340.08
2018-04-02T09:47:04.362Z,100343.13
2018-04-02T09:49:30.318Z,100333.36
2018-04-02T09:51:56.272Z,100326.44
2018-04-02T09:54:22.266Z,100321.52
2018-04-02T09:56:48.211Z,100321.74
2018-04-02T09:59:14.188Z,100319.38
2018-04-02T10:01:40.102Z,100319.75
2018-04-02T10:04:06.033Z,100312.33
2018-04-02T10:06:31.982Z,100316.93
2018-04-02T10:08:57.958Z,100309.38
2018-04-02T10:11:23.908Z,100306.38
2018-04-02T10:13:49.921Z,100301.02
2018-04-02T10:16:15.874Z,100298.23
2018-04-02T10:18:41.886Z,100291.73
2018-04-02T10:21:07.829Z,100288.73
2018-04-02T10:23:33.830Z,100280.23
2018-04-02T10:25:59.806Z,100283.13
2018-04-02T10:28:25.781Z,100280.14
2018-04-02T10:30:51.825Z,100278.83
2018-04-02T10:33:17.773Z,100260.77
2018-04-02T10:35:43.742Z,100256.49
2018-04-02T10:38:09.794Z,100253.86
2018-04-02T10:40:35.838Z,100243.39
2018-04-02T10:43:01.781Z,100242.36
2018-04-02T10:45:27.749Z,100235.86
2018-04-02T10:47:53.689Z,100230.50
2018-04-02T10:50:19.651Z,100227.95
2018-04-02T10:52:45.593Z,100230.06
2018-04-02T10:55:11.537Z,100218.43
2018-04-02T10:57:37.473Z,100218.13
2018-04-02T11:00:03.478Z,100219.05
2018-04-02T11:02:29.428Z,100210.84
2018-04-02T11:04:55.385Z,100209.75
2018-04-02T11:07:21.351Z,100209.98
2018-04-02T11:09:47.286Z,100209.11
2018-04-02T11:12:13.228Z,100198.94
2018-04-02T11:14:39.209Z,100195.59
2018-04-02T11:17:05.152Z,100195.02
2018-04-02T11:19:31.095Z,100190.00
2018-04-02T11:21:57.046Z,100189.86
2018-04-02T11:24:23.010Z,100187.95
2018-04-02T11:26:49.077Z,100180.04
2018-04-02T11:29:15.046Z,100180.59
2018-04-02T11:31:40.994Z,100176.73
2018-04-02T11:34:06.972Z,100174.50
2018-04-02T11:36:32.913Z,100164.03
2018-04-02T11:38:58.873Z,100163.15
2018-04-02T11:41:24.826Z,100161.22
2018-04-02T11:43:50.797Z,100163.55
2018-04-02T11:46:16.754Z,100165.59
2018-04-02T11:48:42.726Z,100160.28
2018-04-02T11:51:08.693Z,100154.25
2018-04-02T11:53:34.629Z,100146.89
2018-04-02T11:56:00.725Z,100146.16
2018-04-02T11:58:26.666Z,100145.75
2018-04-02T12:00:52.738Z,100141.85
2018-04-02T12:03:18.695Z,100140.69
2018-04-02T12:05:44.638Z,100134.74
2018-04-02T12:08:10.590Z,100119.76
2018-04-02T12:10:36.527Z,100118.85
2018-04-02T12:13:02.479Z,100122.98
2018-04-02T12:15:28.450Z,100117.95
2018-04-02T12:17:54.409Z,100114.12
2018-04-02T12:20:20.353Z,100116.70
2018-04-02T12:22:46.310Z,100108.60
2018-04-02T12:25:12.270Z,100104.29
2018-04-02T12:27:38.271Z,100103.67
2018-04-02T12:30:04.253Z,100095.84
2018-04-02T12:32:30.201Z,100089.44
2018-04-02T12:34:56.244Z,100089.23
2018-04-02T12:37:22.208Z,100083.22
2018-04-02T12:39:48.171Z,100084.30
2018-04-02T12:42:14.135Z,100075.73
2018-04-02T12:44:40.089Z,100071.52
2018-04-02T12:47:06.051Z,100075.80
2018-04-02T12:49:32.020Z,100066.58
2018-04-02T12:51:58.030Z,100058.15
2018-04-02T12:54:23.974Z,100052.46
2018-04-02T12:56:49.939Z,100049.08
2018-04-02T12:59:15.901Z,100040.84
2018-04-02T13:01:41.919Z,100035.23
2018-04-02T13:04:07.875Z,100029.30
2018-04-02T13:06:33.821Z,100029.14
2018-04-02T13:08:59.853Z,100022.06
2018-04-02T13:11:25.765Z,100017.45
2018-04-02T13:13:51.769Z,100014.05
2018-04-02T13:16:17.713Z,100005.72
2018-04-02T13:18:43.663Z,100010.50
2018-04-02T13:21:09.698Z,99993.11
2018-04-02T13:23:35.713Z,99991.13
2018-04-02T13:26:01.714Z,99983.55
2018-04-02T13:28:27.685Z,99978.91
2018-04-02T13:30:53.637Z,99964.81
2018-04-02T13:33:19.654Z,99970.73
2018-04-02T13:35:45.563Z,99965.48
2018-04-02T13:38:11.522Z,99957.41
2018-04-02T13:40:37.575Z,99953.53
2018-04-02T13:43:03.520Z,99953.21
2018-04-02T13:45:29.457Z,99952.46
2018-04-02T13:47:55.419Z,99944.61
2018-04-02T13:50:21.390Z,99936.22
2018-04-02T13:52:47.346Z,99936.54
2018-04-02T13:55:13.329Z,99934.56
2018-04-02T13:57:39.258Z,99928.84
2018-04-02T14:00:05.215Z,99920.05
2018-04-02T14:02:31.177Z,99921.84
2018-04-02T14:04:57.113Z,99913.60
2018-04-02T14:07:23.154Z,99909.95
2018-04-02T14:09:49.094Z,99896.83
2018-04-02T14:12:15.048Z,99895.45
2018-04-02T14:14:40.984Z,99891.86
2018-04-02T14:17:06.952Z,99889.63
2018-04-02T14:19:32.894Z,99892.86
2018-04-02T14:21:58.848Z,99890.44
2018-04-02T14:24:24.785Z,99883.38
2018-04-02T14:26:50.738Z,99878.75
2018-04-02T14:29:16.796Z,99874.89
2018-04-02T14:31:42.778Z,99873.73
2018-04-02T14:34:08.759Z,99869.87
2018-04-02T14:36:34.698Z,99866.78
2018-04-02T14:39:00.658Z,99857.33
2018-04-02T14:41:26.602Z,99849.30
2018-04-02T14:43:52.558Z,99847.08
2018-04-02T14:46:18.506Z,99838.84
2018-04-02T14:48:44.462Z,99831.75
2018-04-02T14:51:10.466Z,99825.65
2018-04-02T14:53:36.415Z,99828.80
2018-04-02T14:56:02.388Z,99829.96
2018-04-02T14:58:28.370Z,99825.25
2018-04-02T15:00:54.354Z,99819.86
2018-04-02T15:03:20.289Z,99817.83
2018-04-02T15:05:46.277Z,99818.14
2018-04-02T15:08:12.218Z,99803.52
2018-04-02T15:10:38.154Z,99809.87
2018-04-02T15:13:04.106Z,99804.13
2018-04-02T15:15:30.041Z,99803.07
2018-04-02T15:17:56.009Z,99809.09
2018-04-02T15:20:22.018Z,99794.56
2018-04-02T15:22:47.983Z,99789.43
2018-04-02T15:25:13.939Z,99794.41
2018-04-02T15:27:40.007Z,99788.83
2018-04-02T15:30:06.046Z,99784.94
2018-04-02T15:32:32.058Z,99773.73
2018-04-02T15:34:58.033Z,99754.48
2018-04-02T15:37:23.987Z,99742.68
2018-04-02T15:39:49.914Z,99734.45
2018-04-02T15:42:15.869Z,99740.28
2018-04-02T15:44:41.846Z,99734.30
2018-04-02T15:47:07.808Z,99728.81
2018-04-02T15:49:33.750Z,99720.23
2018-04-02T15:51:59.709Z,99721.53
2018-04-02T15:54:25.670Z,99724.78
2018-04-02T15:56:51.637Z,99719.56
2018-04-02T15:59:17.584Z,99725.06
2018-04-02T16:01:43.560Z,99724.98
2018-04-02T16:04:09.501Z,99723.77
2018-04-02T16:06:35.488Z,99715.75
2018-04-02T16:09:01.451Z,99705.75
2018-04-02T16:11:27.406Z,99705.72
2018-04-02T16:13:53.346Z,99697.50
2018-04-02T16:16:19.328Z,99687.77
2018-04-02T16:18:45.282Z,99677.78
2018-04-02T16:21:11.238Z,99677.89
2018-04-02T16:23:37.199Z,99667.38
2018-04-02T16:26:03.160Z,99668.97
2018-04-02T16:28:29.122Z,99669.72
2018-04-02T16:30:55.078Z,99666.10
2018-04-02T16:33:21.031Z,99657.92
2018-04-02T16:35:47.068Z,99652.56
2018-04-02T16:38:13.041Z,99650.23
2018-04-02T16:40:39.013Z,99654.52
2018-04-02T16:43:04.965Z,99646.42
2018-04-02T16:45:30.922Z,99645.36
2018-04-02T16:47:56.910Z,99638.86
2018-04-02T16:50:22.857Z,99637.09
2018-04-02T16:52:48.821Z,99636.22
2018-04-02T16:55:14.766Z,99630.97
2018-04-02T16:57:40.731Z,99620.79
2018-04-02T17:00:06.701Z,99635.63
2018-04-02T17:02:32.650Z,99628.46
2018-04-02T17:04:58.597Z,99626.73
2018-04-02T17:07:24.547Z,99623.75
2018-04-02T17:09:50.511Z,99631.94
2018-04-02T17:12:16.447Z,99645.52
2018-04-02T17:14:42.454Z,99646.59
2018-04-02T17:17:08.409Z,99635.71
2018-04-02T17:19:34.354Z,99639.67
2018-04-02T17:22:00.317Z,99638.76
2018-04-02T17:24:26.325Z,99641.40
2018-04-02T17:26:52.308Z,99648.27
2018-04-02T17:29:18.260Z,99646.79
2018-04-02T17:31:44.308Z,99657.27
2018-04-02T17:34:10.258Z,99668.15
2018-04-02T17:36:36.205Z,99659.09
2018-04-02T17:39:02.150Z,99652.64
2018-04-02T17:41:28.087Z,99646.79
2018-04-02T17:43:54.026Z,99652.33
2018-04-02T17:46:19.971Z,99643.76
2018-04-02T17:48:45.994Z,99637.77
2018-04-02T17:51:11.949Z,99636.92
2018-04-02T17:53:37.894Z,99641.53
2018-04-02T17:56:03.926Z,99630.83
2018-04-02T17:58:29.849Z,99634.52
2018-04-02T18:00:55.806Z,99634.09
2018-04-02T18:03:21.765Z,99637.16
2018-04-02T18:05:47.807Z,99642.48
2018-04-02T18:08:13.758Z,99648.53
2018-04-02T18:10:39.726Z,99637.47
2018-04-02T18:13:05.688Z,99632.19
2018-04-02T18:15:31.645Z,99626.30
2018-04-02T18:17:57.599Z,99620.55
2018-04-02T18:20:23.564Z,99630.97
2018-04-02T18:22:49.534Z,99632.29
2018-04-02T18:25:15.511Z,99630.35
2018-04-02T18:27:41.484Z,99627.80
2018-04-02T18:30:07.476Z,99641.14
2018-04-02T18:32:33.413Z,99633.89
2018-04-02T18:34:59.366Z,99637.20
2018-04-02T18:37:25.302Z,99629.48
2018-04-02T18:39:51.263Z,99638.37
2018-04-02T18:42:17.244Z,99636.64
2018-04-02T18:44:43.211Z,99632.70
2018-04-02T18:47:09.172Z,99624.86
2018-04-02T18:49:35.190Z,99625.98
2018-04-02T18:52:01.136Z,99624.09
2018-04-02T18:54:27.117Z,99621.63
2018-04-02T18:56:53.073Z,99632.19
2018-04-02T18:59:19.082Z,99637.05
2018-04-02T19:01:45.131Z,99641.32
2018-04-02T19:04:11.158Z,99650.34
2018-04-02T19:06:37.132Z,99659.98
2018-04-02T19:09:03.093Z,99666.99
2018-04-02T19:11:29.043Z,99655.89
2018-04-02T19:13:54.991Z,99652.99
2018-04-02T19:16:20.934Z,99654.22
2018-04-02T19:18:46.936Z,99656.53
2018-04-02T19:21:12.913Z,99646.25
2018-04-02T19:23:38.894Z,99638.62
2018-04-02T19:26:04.854Z,99639.38
2018-04-02T19:28:30.820Z,99633.58
2018-04-02T19:30:56.862Z,99629.88
2018-04-02T19:33:22.879Z,99630.58
2018-04-02T19:35:48.826Z,99622.78
2018-04-02T19:38:14.774Z,99622.03
2018-04-02T19:40:40.743Z,99625.82
2018-04-02T19:43:06.698Z,99641.41
2018-04-02T19:45:32.645Z,99636.22
2018-04-02T19:47:58.595Z,99643.39
2018-04-02T19:50:24.541Z,99641.14
2018-04-02T19:52:50.504Z,99635.61
2018-04-02T19:55:16.454Z,99631.80
2018-04-02T19:57:42.525Z,99623.62
2018-04-02T20:00:08.479Z,99632.17
2018-04-02T20:02:34.473Z,99637.89
2018-04-02T20:05:00.442Z,99629.98
2018-04-02T20:07:26.490Z,99631.56
2018-04-02T20:09:52.521Z,99633.38
2018-04-02T20:12:18.480Z,99627.45
2018-04-02T20:14:44.446Z,99626.96
2018-04-02T20:17:10.490Z,99622.87
2018-04-02T20:19:36.530Z,99635.42
2018-04-02T20:22:02.563Z,99632.92
2018-04-02T20:24:28.565Z,99633.75
2018-04-02T20:26:54.512Z,99635.04
2018-04-02T20:29:20.461Z,99631.62
2018-04-02T20:31:46.414Z,99630.31
2018-04-02T20:34:12.382Z,99627.02
2018-04-02T20:36:38.361Z,99627.37
2018-04-02T20:39:04.308Z,99628.44
2018-04-02T20:41:30.291Z,99625.19
2018-04-02T20:43:56.292Z,99620.03
2018-04-02T20:46:22.325Z,99626.20
2018-04-02T20:48:48.278Z,99626.25
2018-04-02T20:51:14.290Z,99630.01
2018-04-02T20:53:40.264Z,99624.58
2018-04-02T20:56:06.260Z,99618.45
2018-04-02T20:58:32.303Z,99619.23
2018-04-02T21:00:58.299Z,99613.86
2018-04-02T21:03:24.264Z,99605.75
2018-04-02T21:05:50.253Z,99601.19
2018-04-02T21:08:16.256Z,99597.87
2018-04-02T21:10:42.301Z,99593.75
2018-04-02T21:13:08.261Z,99603.81
2018-04-02T21:15:34.460Z,99599.64
2018-04-02T21:18:00.417Z,99602.89
2018-04-02T21:20:26.432Z,99595.47
2018-04-02T21:22:53.478Z,99597.48
2018-04-02T21:25:19.430Z,99599.17
2018-04-02T21:27:45.443Z,99611.87
2018-04-02T21:30:11.399Z,99602.73
2018-04-02T21:32:37.362Z,99600.05
2018-04-02T21:35:03.311Z,99593.05
2018-04-02T21:37:29.291Z,99589.40
2018-04-02T21:39:55.255Z,99591.89
2018-04-02T21:42:21.220Z,99593.62
2018-04-02T21:44:47.161Z,99598.30
2018-04-02T21:47:13.153Z,99598.45
2018-04-02T21:49:39.102Z,99589.48
2018-04-02T21:52:05.081Z,99586.56
2018-04-02T21:54:31.135Z,99587.64
2018-04-02T21:56:57.089Z,99586.89
2018-04-02T21:59:23.034Z,99593.75
2018-04-02T22:01:48.985Z,99589.53
2018-04-02T22:04:14.944Z,99586.78
2018-04-02T22:06:40.902Z,99588.72
2018-04-02T22:09:06.882Z,99585.36
2018-04-02T22:11:32.861Z,99581.62
2018-04-02T22:13:58.862Z,99587.94
2018-04-02T22:16:24.825Z,99591.86
2018-04-02T22:18:50.757Z,99584.95
2018-04-02T22:21:16.742Z,99584.76
2018-04-02T22:23:42.741Z,99586.88
2018-04-02T22:26:08.714Z,99584.40
2018-04-02T22:28:34.656Z,99590.44
2018-04-02T22:31:00.609Z,99590.44
2018-04-02T22:33:26.575Z,99587.41
2018-04-02T22:35:52.602Z,99589.50
2018-04-02T22:38:18.652Z,99586.59
2018-04-02T22:40:44.620Z,99589.17
2018-04-02T22:43:10.617Z,99592.62
2018-04-02T22:45:36.665Z,99589.48
2018-04-02T22:48:02.666Z,99589.64
2018-04-02T22:50:28.634Z,99590.48
2018-04-02T22:52:54.777Z,99592.12
2018-04-02T22:55:20.762Z,99598.26
2018-04-02T22:57:46.724Z,99605.02
2018-04-02T23:00:12.683Z,99602.13
2018-04-02T23:02:38.643Z,99611.72
2018-04-02T23:05:04.614Z,99617.56
2018-04-02T23:07:30.558Z,99620.25
2018-04-02T23:09:56.574Z,99616.78
2018-04-02T23:12:22.536Z,99626.38
2018-04-02T23:14:48.483Z,99620.95
2018-04-02T23:17:14.468Z,99626.07
2018-04-02T23:19:40.416Z,99627.70
2018-04-02T23:22:06.417Z,99621.83
2018-04-02T23:24:32.386Z,99620.80
2018-04-02T23:26:58.361Z,99625.58
2018-04-02T23:29:24.322Z,99626.64
2018-04-02T23:31:50.260Z,99625.78
2018-04-02T23:34:16.211Z,99626.84
2018-04-02T23:36:42.146Z,99628.56
2018-04-02T23:39:08.100Z,99624.61
2018-04-02T23:41:34.069Z,99613.59
2018-04-02T23:44:00.010Z,99617.56
2018-04-02T23:46:25.969Z,99620.56
2018-04-02T23:48:51.945Z,99621.06
2018-04-02T23:51:17.911Z,99621.88
2018-04-02T23:53:43.857Z,99626.18
2018-04-02T23:56:09.810Z,99628.77
2018-04-02T23:58:35.758Z,99630.77
